sensor_id;sensor_type;location;lat;lon;timestamp;temperature;humidity
40756;DHT22;26461;45.630;9.418;2022-07-15T00:00:04;28.10;62.90
40756;DHT22;26461;45.630;9.418;2022-07-15T00:03:17;28.10;63.00
40756;DHT22;26461;45.630;9.418;2022-07-15T00:06:31;28.10;62.90
40756;DHT22;26461;45.630;9.418;2022-07-15T00:09:45;28.10;62.50
40756;DHT22;26461;45.630;9.418;2022-07-15T00:13:18;28.00;62.50
40756;DHT22;26461;45.630;9.418;2022-07-15T00:16:31;28.00;62.40
40756;DHT22;26461;45.630;9.418;2022-07-15T00:19:39;27.90;62.60
40756;DHT22;26461;45.630;9.418;2022-07-15T00:23:07;27.90;62.80
40756;DHT22;26461;45.630;9.418;2022-07-15T00:26:13;27.90;62.80
40756;DHT22;26461;45.630;9.418;2022-07-15T00:29:30;27.90;63.20
40756;DHT22;26461;45.630;9.418;2022-07-15T00:32:54;27.90;63.80
40756;DHT22;26461;45.630;9.418;2022-07-15T00:36:05;27.80;63.80
40756;DHT22;26461;45.630;9.418;2022-07-15T00:39:22;27.80;63.80
40756;DHT22;26461;45.630;9.418;2022-07-15T00:42:28;27.80;63.90
40756;DHT22;26461;45.630;9.418;2022-07-15T00:45:53;27.80;64.30
40756;DHT22;26461;45.630;9.418;2022-07-15T00:49:06;27.80;64.50
40756;DHT22;26461;45.630;9.418;2022-07-15T00:52:16;27.80;64.40
40756;DHT22;26461;45.630;9.418;2022-07-15T00:55:40;27.80;64.40
40756;DHT22;26461;45.630;9.418;2022-07-15T00:58:57;27.80;64.40
40756;DHT22;26461;45.630;9.418;2022-07-15T01:02:18;27.70;64.90
40756;DHT22;26461;45.630;9.418;2022-07-15T01:05:31;27.70;65.00
40756;DHT22;26461;45.630;9.418;2022-07-15T01:08:51;27.60;65.30
40756;DHT22;26461;45.630;9.418;2022-07-15T01:11:58;27.60;65.60
40756;DHT22;26461;45.630;9.418;2022-07-15T01:15:13;27.60;65.60
40756;DHT22;26461;45.630;9.418;2022-07-15T01:18:29;27.60;65.70
40756;DHT22;26461;45.630;9.418;2022-07-15T01:21:41;27.50;65.80
40756;DHT22;26461;45.630;9.418;2022-07-15T01:24:48;27.50;65.90
40756;DHT22;26461;45.630;9.418;2022-07-15T01:28:07;27.50;66.70
40756;DHT22;26461;45.630;9.418;2022-07-15T01:31:21;27.60;67.40
40756;DHT22;26461;45.630;9.418;2022-07-15T01:34:34;27.60;67.90
40756;DHT22;26461;45.630;9.418;2022-07-15T01:37:44;27.60;66.20
40756;DHT22;26461;45.630;9.418;2022-07-15T01:40:59;27.60;65.90
40756;DHT22;26461;45.630;9.418;2022-07-15T01:44:13;27.50;66.10
40756;DHT22;26461;45.630;9.418;2022-07-15T01:47:28;27.40;66.40
40756;DHT22;26461;45.630;9.418;2022-07-15T01:50:43;27.30;66.40
40756;DHT22;26461;45.630;9.418;2022-07-15T01:53:53;27.20;66.90
40756;DHT22;26461;45.630;9.418;2022-07-15T01:57:05;27.10;67.10
40756;DHT22;26461;45.630;9.418;2022-07-15T02:00:20;27.00;67.60
40756;DHT22;26461;45.630;9.418;2022-07-15T02:03:29;26.80;68.00
40756;DHT22;26461;45.630;9.418;2022-07-15T02:06:40;26.70;68.60
40756;DHT22;26461;45.630;9.418;2022-07-15T02:09:49;26.70;69.00
40756;DHT22;26461;45.630;9.418;2022-07-15T02:12:59;26.60;69.20
40756;DHT22;26461;45.630;9.418;2022-07-15T02:16:05;26.50;69.70
40756;DHT22;26461;45.630;9.418;2022-07-15T02:19:21;26.40;70.60
40756;DHT22;26461;45.630;9.418;2022-07-15T02:22:33;26.40;70.90
40756;DHT22;26461;45.630;9.418;2022-07-15T02:25:47;26.40;71.10
40756;DHT22;26461;45.630;9.418;2022-07-15T02:29:00;26.30;71.20
40756;DHT22;26461;45.630;9.418;2022-07-15T02:32:14;26.30;71.20
40756;DHT22;26461;45.630;9.418;2022-07-15T02:35:21;26.30;71.20
40756;DHT22;26461;45.630;9.418;2022-07-15T02:38:36;26.30;71.80
40756;DHT22;26461;45.630;9.418;2022-07-15T02:41:45;26.40;72.00
40756;DHT22;26461;45.630;9.418;2022-07-15T02:44:56;26.40;72.20
40756;DHT22;26461;45.630;9.418;2022-07-15T02:48:09;26.50;72.10
40756;DHT22;26461;45.630;9.418;2022-07-15T02:51:25;26.60;71.90
40756;DHT22;26461;45.630;9.418;2022-07-15T02:54:43;26.60;71.80
40756;DHT22;26461;45.630;9.418;2022-07-15T02:57:49;26.60;72.10
40756;DHT22;26461;45.630;9.418;2022-07-15T03:01:07;26.70;72.30
40756;DHT22;26461;45.630;9.418;2022-07-15T03:04:17;26.70;72.30
40756;DHT22;26461;45.630;9.418;2022-07-15T03:07:32;26.80;72.70
40756;DHT22;26461;45.630;9.418;2022-07-15T03:10:42;26.80;72.50
40756;DHT22;26461;45.630;9.418;2022-07-15T03:13:52;26.90;72.60
40756;DHT22;26461;45.630;9.418;2022-07-15T03:17:02;26.90;72.50
40756;DHT22;26461;45.630;9.418;2022-07-15T03:20:23;26.90;72.50
40756;DHT22;26461;45.630;9.418;2022-07-15T03:23:43;26.90;72.90
40756;DHT22;26461;45.630;9.418;2022-07-15T03:26:55;26.90;73.40
40756;DHT22;26461;45.630;9.418;2022-07-15T03:30:02;26.90;73.80
40756;DHT22;26461;45.630;9.418;2022-07-15T03:33:16;26.80;74.30
40756;DHT22;26461;45.630;9.418;2022-07-15T03:36:31;26.80;74.60
40756;DHT22;26461;45.630;9.418;2022-07-15T03:39:39;26.80;75.10
40756;DHT22;26461;45.630;9.418;2022-07-15T03:42:51;26.80;75.40
40756;DHT22;26461;45.630;9.418;2022-07-15T03:45:57;26.70;75.80
40756;DHT22;26461;45.630;9.418;2022-07-15T03:49:03;26.70;76.30
40756;DHT22;26461;45.630;9.418;2022-07-15T03:52:13;26.70;76.50
40756;DHT22;26461;45.630;9.418;2022-07-15T03:55:33;26.70;77.10
40756;DHT22;26461;45.630;9.418;2022-07-15T03:58:51;26.70;77.50
40756;DHT22;26461;45.630;9.418;2022-07-15T04:01:57;26.70;77.60
40756;DHT22;26461;45.630;9.418;2022-07-15T04:05:11;26.70;77.90
40756;DHT22;26461;45.630;9.418;2022-07-15T04:08:18;26.70;78.50
40756;DHT22;26461;45.630;9.418;2022-07-15T04:11:29;26.70;79.10
40756;DHT22;26461;45.630;9.418;2022-07-15T04:14:41;26.60;79.80
40756;DHT22;26461;45.630;9.418;2022-07-15T04:17:47;26.60;79.90
40756;DHT22;26461;45.630;9.418;2022-07-15T04:21:03;26.50;80.10
40756;DHT22;26461;45.630;9.418;2022-07-15T04:24:14;26.50;80.90
40756;DHT22;26461;45.630;9.418;2022-07-15T04:27:32;26.40;81.40
40756;DHT22;26461;45.630;9.418;2022-07-15T04:30:42;26.30;82.30
40756;DHT22;26461;45.630;9.418;2022-07-15T04:33:52;26.30;82.80
40756;DHT22;26461;45.630;9.418;2022-07-15T04:37:03;26.30;83.00
40756;DHT22;26461;45.630;9.418;2022-07-15T04:40:23;26.30;83.80
40756;DHT22;26461;45.630;9.418;2022-07-15T04:43:32;26.30;83.70
40756;DHT22;26461;45.630;9.418;2022-07-15T04:46:58;26.30;83.70
40756;DHT22;26461;45.630;9.418;2022-07-15T04:50:17;26.30;83.50
40756;DHT22;26461;45.630;9.418;2022-07-15T04:53:49;26.30;84.00
40756;DHT22;26461;45.630;9.418;2022-07-15T04:56:58;26.30;84.90
40756;DHT22;26461;45.630;9.418;2022-07-15T05:00:11;26.30;85.40
40756;DHT22;26461;45.630;9.418;2022-07-15T05:03:29;26.40;85.70
40756;DHT22;26461;45.630;9.418;2022-07-15T05:06:36;26.40;85.70
40756;DHT22;26461;45.630;9.418;2022-07-15T05:09:47;26.50;86.40
40756;DHT22;26461;45.630;9.418;2022-07-15T05:12:57;26.50;87.30
40756;DHT22;26461;45.630;9.418;2022-07-15T05:16:03;26.60;87.40
40756;DHT22;26461;45.630;9.418;2022-07-15T05:19:15;26.70;88.20
40756;DHT22;26461;45.630;9.418;2022-07-15T05:22:21;26.70;88.70
40756;DHT22;26461;45.630;9.418;2022-07-15T05:25:32;26.70;89.00
40756;DHT22;26461;45.630;9.418;2022-07-15T05:28:41;26.80;89.70
40756;DHT22;26461;45.630;9.418;2022-07-15T05:31:55;26.80;89.80
40756;DHT22;26461;45.630;9.418;2022-07-15T05:35:01;27.00;89.90
40756;DHT22;26461;45.630;9.418;2022-07-15T05:38:12;27.00;89.80
40756;DHT22;26461;45.630;9.418;2022-07-15T05:41:30;27.10;89.60
40756;DHT22;26461;45.630;9.418;2022-07-15T05:44:40;27.20;88.30
40756;DHT22;26461;45.630;9.418;2022-07-15T05:47:50;27.20;88.00
40756;DHT22;26461;45.630;9.418;2022-07-15T05:51:10;27.30;87.90
40756;DHT22;26461;45.630;9.418;2022-07-15T05:54:27;27.40;85.00
40756;DHT22;26461;45.630;9.418;2022-07-15T05:57:36;27.40;84.40
40756;DHT22;26461;45.630;9.418;2022-07-15T06:00:50;27.50;83.30
40756;DHT22;26461;45.630;9.418;2022-07-15T06:04:00;27.50;81.90
40756;DHT22;26461;45.630;9.418;2022-07-15T06:07:20;27.50;79.80
40756;DHT22;26461;45.630;9.418;2022-07-15T06:10:28;27.40;79.60
40756;DHT22;26461;45.630;9.418;2022-07-15T06:13:38;27.40;78.60
40756;DHT22;26461;45.630;9.418;2022-07-15T06:16:48;27.30;78.30
40756;DHT22;26461;45.630;9.418;2022-07-15T06:20:03;27.30;78.30
40756;DHT22;26461;45.630;9.418;2022-07-15T06:23:19;27.30;78.40
40756;DHT22;26461;45.630;9.418;2022-07-15T06:26:31;27.40;77.80
40756;DHT22;26461;45.630;9.418;2022-07-15T06:29:42;27.40;77.80
40756;DHT22;26461;45.630;9.418;2022-07-15T06:32:53;27.50;77.00
40756;DHT22;26461;45.630;9.418;2022-07-15T06:36:03;27.50;77.10
40756;DHT22;26461;45.630;9.418;2022-07-15T06:39:13;27.50;77.40
40756;DHT22;26461;45.630;9.418;2022-07-15T06:42:37;27.60;77.20
40756;DHT22;26461;45.630;9.418;2022-07-15T06:46:25;27.60;77.10
40756;DHT22;26461;45.630;9.418;2022-07-15T06:49:42;27.70;77.80
40756;DHT22;26461;45.630;9.418;2022-07-15T06:52:57;27.70;78.20
40756;DHT22;26461;45.630;9.418;2022-07-15T06:56:09;27.80;78.10
40756;DHT22;26461;45.630;9.418;2022-07-15T06:59:30;27.90;77.50
40756;DHT22;26461;45.630;9.418;2022-07-15T07:02:50;27.90;75.70
40756;DHT22;26461;45.630;9.418;2022-07-15T07:06:04;28.00;76.10
40756;DHT22;26461;45.630;9.418;2022-07-15T07:09:20;28.10;76.30
40756;DHT22;26461;45.630;9.418;2022-07-15T07:12:34;28.10;76.50
40756;DHT22;26461;45.630;9.418;2022-07-15T07:15:44;28.20;76.60
40756;DHT22;26461;45.630;9.418;2022-07-15T07:18:58;28.30;76.20
40756;DHT22;26461;45.630;9.418;2022-07-15T07:22:16;28.40;75.80
40756;DHT22;26461;45.630;9.418;2022-07-15T07:25:34;28.40;75.10
40756;DHT22;26461;45.630;9.418;2022-07-15T07:28:47;28.40;75.10
40756;DHT22;26461;45.630;9.418;2022-07-15T07:32:01;28.50;74.20
40756;DHT22;26461;45.630;9.418;2022-07-15T07:35:13;28.50;74.20
40756;DHT22;26461;45.630;9.418;2022-07-15T07:38:22;28.50;73.90
40756;DHT22;26461;45.630;9.418;2022-07-15T07:41:34;28.50;73.50
40756;DHT22;26461;45.630;9.418;2022-07-15T07:44:40;28.50;73.70
40756;DHT22;26461;45.630;9.418;2022-07-15T07:47:51;28.50;74.20
40756;DHT22;26461;45.630;9.418;2022-07-15T07:51:07;28.50;73.80
40756;DHT22;26461;45.630;9.418;2022-07-15T07:54:17;28.60;73.10
40756;DHT22;26461;45.630;9.418;2022-07-15T07:57:32;28.60;73.30
40756;DHT22;26461;45.630;9.418;2022-07-15T08:00:47;28.60;73.30
40756;DHT22;26461;45.630;9.418;2022-07-15T08:04:10;28.70;73.20
40756;DHT22;26461;45.630;9.418;2022-07-15T08:07:25;28.70;73.40
40756;DHT22;26461;45.630;9.418;2022-07-15T08:10:45;28.80;73.40
40756;DHT22;26461;45.630;9.418;2022-07-15T08:14:01;28.80;73.60
40756;DHT22;26461;45.630;9.418;2022-07-15T08:17:19;28.90;73.70
40756;DHT22;26461;45.630;9.418;2022-07-15T08:20:38;28.90;73.50
40756;DHT22;26461;45.630;9.418;2022-07-15T08:23:53;29.00;72.60
40756;DHT22;26461;45.630;9.418;2022-07-15T08:27:15;29.10;72.90
40756;DHT22;26461;45.630;9.418;2022-07-15T08:30:42;29.10;71.80
40756;DHT22;26461;45.630;9.418;2022-07-15T08:34:02;29.10;72.20
40756;DHT22;26461;45.630;9.418;2022-07-15T08:37:19;29.10;72.50
40756;DHT22;26461;45.630;9.418;2022-07-15T08:40:43;29.20;72.60
40756;DHT22;26461;45.630;9.418;2022-07-15T08:43:58;29.30;73.30
40756;DHT22;26461;45.630;9.418;2022-07-15T08:47:15;29.30;73.00
40756;DHT22;26461;45.630;9.418;2022-07-15T08:50:35;29.40;72.30
40756;DHT22;26461;45.630;9.418;2022-07-15T08:53:53;29.50;72.40
40756;DHT22;26461;45.630;9.418;2022-07-15T08:57:13;29.50;72.50
40756;DHT22;26461;45.630;9.418;2022-07-15T09:00:24;29.50;72.90
40756;DHT22;26461;45.630;9.418;2022-07-15T09:03:47;29.60;72.40
40756;DHT22;26461;45.630;9.418;2022-07-15T09:06:55;29.60;72.10
40756;DHT22;26461;45.630;9.418;2022-07-15T09:10:10;29.70;71.80
40756;DHT22;26461;45.630;9.418;2022-07-15T09:13:37;29.70;72.00
40756;DHT22;26461;45.630;9.418;2022-07-15T09:20:42;29.90;70.70
40756;DHT22;26461;45.630;9.418;2022-07-15T09:24:20;29.90;70.80
40756;DHT22;26461;45.630;9.418;2022-07-15T09:27:38;30.00;70.60
40756;DHT22;26461;45.630;9.418;2022-07-15T09:30:58;30.00;70.20
40756;DHT22;26461;45.630;9.418;2022-07-15T09:34:34;30.10;68.80
40756;DHT22;26461;45.630;9.418;2022-07-15T09:37:59;30.20;68.80
40756;DHT22;26461;45.630;9.418;2022-07-15T09:41:18;30.20;67.90
40756;DHT22;26461;45.630;9.418;2022-07-15T09:44:36;30.30;67.50
40756;DHT22;26461;45.630;9.418;2022-07-15T09:51:13;30.40;67.90
40756;DHT22;26461;45.630;9.418;2022-07-15T09:54:27;30.50;67.40
40756;DHT22;26461;45.630;9.418;2022-07-15T09:57:48;30.60;68.30
40756;DHT22;26461;45.630;9.418;2022-07-15T10:01:12;30.60;66.90
40756;DHT22;26461;45.630;9.418;2022-07-15T10:04:26;30.70;67.10
40756;DHT22;26461;45.630;9.418;2022-07-15T10:07:41;30.70;65.90
40756;DHT22;26461;45.630;9.418;2022-07-15T10:11:08;30.90;65.40
40756;DHT22;26461;45.630;9.418;2022-07-15T10:32:01;31.20;65.20
40756;DHT22;26461;45.630;9.418;2022-07-15T10:39:03;31.30;65.00
40756;DHT22;26461;45.630;9.418;2022-07-15T10:42:18;31.30;65.10
40756;DHT22;26461;45.630;9.418;2022-07-15T10:45:24;31.30;65.20
40756;DHT22;26461;45.630;9.418;2022-07-15T10:48:35;31.40;62.90
40756;DHT22;26461;45.630;9.418;2022-07-15T10:51:49;31.50;63.10
40756;DHT22;26461;45.630;9.418;2022-07-15T10:55:11;31.50;63.00
40756;DHT22;26461;45.630;9.418;2022-07-15T10:58:31;31.70;62.60
40756;DHT22;26461;45.630;9.418;2022-07-15T11:05:21;31.80;61.50
40756;DHT22;26461;45.630;9.418;2022-07-15T11:12:00;32.00;60.60
40756;DHT22;26461;45.630;9.418;2022-07-15T11:15:19;32.10;60.90
40756;DHT22;26461;45.630;9.418;2022-07-15T11:18:56;32.10;60.60
40756;DHT22;26461;45.630;9.418;2022-07-15T11:22:19;32.10;59.50
40756;DHT22;26461;45.630;9.418;2022-07-15T11:25:41;32.20;58.30
40756;DHT22;26461;45.630;9.418;2022-07-15T11:28:58;32.20;57.40
40756;DHT22;26461;45.630;9.418;2022-07-15T11:32:25;32.20;58.10
40756;DHT22;26461;45.630;9.418;2022-07-15T11:39:00;32.30;58.40
40756;DHT22;26461;45.630;9.418;2022-07-15T11:42:22;32.30;59.20
40756;DHT22;26461;45.630;9.418;2022-07-15T11:45:53;32.40;58.90
40756;DHT22;26461;45.630;9.418;2022-07-15T11:48:59;32.50;56.30
40756;DHT22;26461;45.630;9.418;2022-07-15T11:52:23;32.60;56.50
40756;DHT22;26461;45.630;9.418;2022-07-15T11:55:32;32.60;55.70
40756;DHT22;26461;45.630;9.418;2022-07-15T11:58:49;32.60;56.40
40756;DHT22;26461;45.630;9.418;2022-07-15T12:02:13;32.70;56.00
40756;DHT22;26461;45.630;9.418;2022-07-15T12:05:31;32.70;55.80
40756;DHT22;26461;45.630;9.418;2022-07-15T12:08:44;32.80;55.70
40756;DHT22;26461;45.630;9.418;2022-07-15T12:12:04;32.90;54.80
40756;DHT22;26461;45.630;9.418;2022-07-15T12:15:13;33.00;54.10
40756;DHT22;26461;45.630;9.418;2022-07-15T12:18:28;33.10;54.30
40756;DHT22;26461;45.630;9.418;2022-07-15T12:21:54;33.10;54.00
40756;DHT22;26461;45.630;9.418;2022-07-15T12:25:04;33.10;54.40
40756;DHT22;26461;45.630;9.418;2022-07-15T12:28:29;33.10;55.10
40756;DHT22;26461;45.630;9.418;2022-07-15T12:32:08;33.20;55.50
40756;DHT22;26461;45.630;9.418;2022-07-15T12:35:32;33.20;55.20
40756;DHT22;26461;45.630;9.418;2022-07-15T12:38:43;33.30;55.30
40756;DHT22;26461;45.630;9.418;2022-07-15T12:42:07;33.30;55.30
40756;DHT22;26461;45.630;9.418;2022-07-15T12:45:40;33.40;56.00
40756;DHT22;26461;45.630;9.418;2022-07-15T12:49:00;33.40;55.60
40756;DHT22;26461;45.630;9.418;2022-07-15T12:52:35;33.40;55.70
40756;DHT22;26461;45.630;9.418;2022-07-15T12:55:50;33.50;56.50
40756;DHT22;26461;45.630;9.418;2022-07-15T12:59:03;33.50;56.70
40756;DHT22;26461;45.630;9.418;2022-07-15T13:02:22;33.60;56.50
40756;DHT22;26461;45.630;9.418;2022-07-15T13:05:56;33.60;56.40
40756;DHT22;26461;45.630;9.418;2022-07-15T13:09:16;33.60;55.70
40756;DHT22;26461;45.630;9.418;2022-07-15T13:12:26;33.60;54.50
40756;DHT22;26461;45.630;9.418;2022-07-15T13:15:42;33.70;54.20
40756;DHT22;26461;45.630;9.418;2022-07-15T13:19:02;33.80;53.90
40756;DHT22;26461;45.630;9.418;2022-07-15T13:22:19;33.80;55.20
40756;DHT22;26461;45.630;9.418;2022-07-15T13:25:30;34.00;54.40
40756;DHT22;26461;45.630;9.418;2022-07-15T13:28:42;34.00;54.40
40756;DHT22;26461;45.630;9.418;2022-07-15T13:32:00;34.00;54.70
40756;DHT22;26461;45.630;9.418;2022-07-15T13:35:16;33.90;55.70
40756;DHT22;26461;45.630;9.418;2022-07-15T13:38:35;33.90;55.10
40756;DHT22;26461;45.630;9.418;2022-07-15T13:41:48;33.90;54.80
40756;DHT22;26461;45.630;9.418;2022-07-15T13:45:12;34.00;54.20
40756;DHT22;26461;45.630;9.418;2022-07-15T13:48:18;34.10;53.10
40756;DHT22;26461;45.630;9.418;2022-07-15T13:51:42;34.20;53.00
40756;DHT22;26461;45.630;9.418;2022-07-15T13:54:55;34.40;53.20
40756;DHT22;26461;45.630;9.418;2022-07-15T13:58:17;34.50;52.90
40756;DHT22;26461;45.630;9.418;2022-07-15T14:01:35;34.60;51.90
40756;DHT22;26461;45.630;9.418;2022-07-15T14:05:01;34.70;51.30
40756;DHT22;26461;45.630;9.418;2022-07-15T14:08:17;34.70;51.00
40756;DHT22;26461;45.630;9.418;2022-07-15T14:11:32;34.80;50.90
40756;DHT22;26461;45.630;9.418;2022-07-15T14:14:43;34.90;49.60
40756;DHT22;26461;45.630;9.418;2022-07-15T14:18:04;34.90;49.80
40756;DHT22;26461;45.630;9.418;2022-07-15T14:21:21;35.00;49.60
40756;DHT22;26461;45.630;9.418;2022-07-15T14:24:49;35.10;49.00
40756;DHT22;26461;45.630;9.418;2022-07-15T14:28:06;35.20;48.50
40756;DHT22;26461;45.630;9.418;2022-07-15T14:31:18;35.20;49.00
40756;DHT22;26461;45.630;9.418;2022-07-15T14:34:33;35.30;48.60
40756;DHT22;26461;45.630;9.418;2022-07-15T14:37:49;35.10;47.60
40756;DHT22;26461;45.630;9.418;2022-07-15T14:41:00;35.30;48.30
40756;DHT22;26461;45.630;9.418;2022-07-15T14:44:32;35.30;49.00
40756;DHT22;26461;45.630;9.418;2022-07-15T14:47:42;35.40;48.00
40756;DHT22;26461;45.630;9.418;2022-07-15T14:50:57;35.60;47.20
40756;DHT22;26461;45.630;9.418;2022-07-15T14:54:15;35.90;47.70
40756;DHT22;26461;45.630;9.418;2022-07-15T14:57:26;36.20;46.50
40756;DHT22;26461;45.630;9.418;2022-07-15T15:00:38;36.50;46.50
40756;DHT22;26461;45.630;9.418;2022-07-15T15:03:44;36.70;45.20
40756;DHT22;26461;45.630;9.418;2022-07-15T15:06:51;36.90;43.80
40756;DHT22;26461;45.630;9.418;2022-07-15T15:09:57;37.10;43.40
40756;DHT22;26461;45.630;9.418;2022-07-15T15:13:06;37.10;43.00
40756;DHT22;26461;45.630;9.418;2022-07-15T15:16:26;37.20;43.00
40756;DHT22;26461;45.630;9.418;2022-07-15T15:19:42;37.40;42.60
40756;DHT22;26461;45.630;9.418;2022-07-15T15:23:04;37.60;42.60
40756;DHT22;26461;45.630;9.418;2022-07-15T15:26:22;37.80;41.60
40756;DHT22;26461;45.630;9.418;2022-07-15T15:29:41;38.10;40.60
40756;DHT22;26461;45.630;9.418;2022-07-15T15:33:00;38.30;39.50
40756;DHT22;26461;45.630;9.418;2022-07-15T15:36:11;38.50;39.40
40756;DHT22;26461;45.630;9.418;2022-07-15T15:39:26;38.80;38.30
40756;DHT22;26461;45.630;9.418;2022-07-15T15:42:32;39.00;38.10
40756;DHT22;26461;45.630;9.418;2022-07-15T15:45:42;39.10;37.90
40756;DHT22;26461;45.630;9.418;2022-07-15T15:48:53;39.30;37.40
40756;DHT22;26461;45.630;9.418;2022-07-15T15:52:12;39.50;36.90
40756;DHT22;26461;45.630;9.418;2022-07-15T15:55:25;39.60;36.80
40756;DHT22;26461;45.630;9.418;2022-07-15T15:58:37;39.80;36.10
40756;DHT22;26461;45.630;9.418;2022-07-15T16:01:58;39.90;35.70
40756;DHT22;26461;45.630;9.418;2022-07-15T16:05:21;40.10;35.90
40756;DHT22;26461;45.630;9.418;2022-07-15T16:08:31;40.40;35.90
40756;DHT22;26461;45.630;9.418;2022-07-15T16:11:51;40.80;34.90
40756;DHT22;26461;45.630;9.418;2022-07-15T16:15:09;41.10;34.20
40756;DHT22;26461;45.630;9.418;2022-07-15T16:18:23;41.30;34.40
40756;DHT22;26461;45.630;9.418;2022-07-15T16:21:29;41.50;33.80
40756;DHT22;26461;45.630;9.418;2022-07-15T16:25:02;41.60;33.20
40756;DHT22;26461;45.630;9.418;2022-07-15T16:28:15;41.70;32.90
40756;DHT22;26461;45.630;9.418;2022-07-15T16:31:24;41.80;32.90
40756;DHT22;26461;45.630;9.418;2022-07-15T16:34:39;41.90;32.50
40756;DHT22;26461;45.630;9.418;2022-07-15T16:37:56;42.10;32.20
40756;DHT22;26461;45.630;9.418;2022-07-15T16:41:05;42.30;31.50
40756;DHT22;26461;45.630;9.418;2022-07-15T16:44:28;42.50;31.00
40756;DHT22;26461;45.630;9.418;2022-07-15T16:47:53;42.60;30.40
40756;DHT22;26461;45.630;9.418;2022-07-15T16:51:12;42.80;29.60
40756;DHT22;26461;45.630;9.418;2022-07-15T16:54:38;42.90;29.80
40756;DHT22;26461;45.630;9.418;2022-07-15T16:58:02;43.10;28.90
40756;DHT22;26461;45.630;9.418;2022-07-15T17:01:22;43.20;28.70
40756;DHT22;26461;45.630;9.418;2022-07-15T17:04:42;43.20;28.60
40756;DHT22;26461;45.630;9.418;2022-07-15T17:08:04;43.20;28.70
40756;DHT22;26461;45.630;9.418;2022-07-15T17:11:35;43.20;28.50
40756;DHT22;26461;45.630;9.418;2022-07-15T17:14:50;43.20;28.30
40756;DHT22;26461;45.630;9.418;2022-07-15T17:18:10;43.10;28.20
40756;DHT22;26461;45.630;9.418;2022-07-15T17:21:36;43.20;28.10
40756;DHT22;26461;45.630;9.418;2022-07-15T17:24:56;43.00;28.60
40756;DHT22;26461;45.630;9.418;2022-07-15T17:28:09;42.60;28.90
40756;DHT22;26461;45.630;9.418;2022-07-15T17:31:21;42.20;29.40
40756;DHT22;26461;45.630;9.418;2022-07-15T17:34:34;42.20;29.50
40756;DHT22;26461;45.630;9.418;2022-07-15T17:37:40;42.30;29.20
40756;DHT22;26461;45.630;9.418;2022-07-15T17:40:51;42.20;29.20
40756;DHT22;26461;45.630;9.418;2022-07-15T17:44:09;42.10;29.20
40756;DHT22;26461;45.630;9.418;2022-07-15T17:47:27;42.20;29.50
40756;DHT22;26461;45.630;9.418;2022-07-15T17:50:50;42.10;29.00
40756;DHT22;26461;45.630;9.418;2022-07-15T17:54:09;41.90;29.10
40756;DHT22;26461;45.630;9.418;2022-07-15T17:57:24;41.80;29.20
40756;DHT22;26461;45.630;9.418;2022-07-15T18:00:39;41.60;29.10
40756;DHT22;26461;45.630;9.418;2022-07-15T18:03:57;41.40;29.20
40756;DHT22;26461;45.630;9.418;2022-07-15T18:07:20;41.30;29.40
40756;DHT22;26461;45.630;9.418;2022-07-15T18:10:41;41.00;29.30
40756;DHT22;26461;45.630;9.418;2022-07-15T18:13:56;40.80;29.50
40756;DHT22;26461;45.630;9.418;2022-07-15T18:17:10;40.70;29.50
40756;DHT22;26461;45.630;9.418;2022-07-15T18:20:34;40.60;29.60
40756;DHT22;26461;45.630;9.418;2022-07-15T18:23:52;40.30;29.50
40756;DHT22;26461;45.630;9.418;2022-07-15T18:27:13;40.00;29.80
40756;DHT22;26461;45.630;9.418;2022-07-15T18:30:26;39.70;30.00
40756;DHT22;26461;45.630;9.418;2022-07-15T18:33:43;39.50;30.30
40756;DHT22;26461;45.630;9.418;2022-07-15T18:37:06;39.30;30.70
40756;DHT22;26461;45.630;9.418;2022-07-15T18:40:24;39.00;30.90
40756;DHT22;26461;45.630;9.418;2022-07-15T18:43:42;38.80;31.40
40756;DHT22;26461;45.630;9.418;2022-07-15T18:47:00;38.50;32.10
40756;DHT22;26461;45.630;9.418;2022-07-15T18:50:17;38.20;32.80
40756;DHT22;26461;45.630;9.418;2022-07-15T18:53:43;37.90;33.10
40756;DHT22;26461;45.630;9.418;2022-07-15T18:56:58;37.60;34.10
40756;DHT22;26461;45.630;9.418;2022-07-15T19:00:30;37.20;34.60
40756;DHT22;26461;45.630;9.418;2022-07-15T19:03:56;36.90;35.20
40756;DHT22;26461;45.630;9.418;2022-07-15T19:07:06;36.60;36.10
40756;DHT22;26461;45.630;9.418;2022-07-15T19:10:24;36.30;37.00
40756;DHT22;26461;45.630;9.418;2022-07-15T19:13:37;36.10;37.90
40756;DHT22;26461;45.630;9.418;2022-07-15T19:16:56;35.80;38.70
40756;DHT22;26461;45.630;9.418;2022-07-15T19:20:20;35.60;40.20
40756;DHT22;26461;45.630;9.418;2022-07-15T19:23:33;35.30;41.30
40756;DHT22;26461;45.630;9.418;2022-07-15T19:26:48;35.20;42.10
40756;DHT22;26461;45.630;9.418;2022-07-15T19:29:57;34.90;43.10
40756;DHT22;26461;45.630;9.418;2022-07-15T19:33:09;34.70;43.90
40756;DHT22;26461;45.630;9.418;2022-07-15T19:36:23;34.50;44.90
40756;DHT22;26461;45.630;9.418;2022-07-15T19:39:29;34.30;45.60
40756;DHT22;26461;45.630;9.418;2022-07-15T19:42:43;34.20;46.30
40756;DHT22;26461;45.630;9.418;2022-07-15T19:46:07;34.00;46.50
40756;DHT22;26461;45.630;9.418;2022-07-15T19:49:27;33.80;47.10
40756;DHT22;26461;45.630;9.418;2022-07-15T19:52:49;33.50;47.60
40756;DHT22;26461;45.630;9.418;2022-07-15T19:56:23;33.60;48.40
40756;DHT22;26461;45.630;9.418;2022-07-15T19:59:32;33.40;49.00
40756;DHT22;26461;45.630;9.418;2022-07-15T20:03:10;33.30;49.50
40756;DHT22;26461;45.630;9.418;2022-07-15T20:06:28;33.20;49.80
40756;DHT22;26461;45.630;9.418;2022-07-15T20:09:51;33.10;50.30
40756;DHT22;26461;45.630;9.418;2022-07-15T20:13:03;32.90;50.40
40756;DHT22;26461;45.630;9.418;2022-07-15T20:16:24;32.80;50.70
40756;DHT22;26461;45.630;9.418;2022-07-15T20:19:49;32.70;50.80
40756;DHT22;26461;45.630;9.418;2022-07-15T20:23:09;32.70;50.90
40756;DHT22;26461;45.630;9.418;2022-07-15T20:26:39;32.50;50.80
40756;DHT22;26461;45.630;9.418;2022-07-15T20:29:54;32.50;51.00
40756;DHT22;26461;45.630;9.418;2022-07-15T20:33:20;32.40;51.30
40756;DHT22;26461;45.630;9.418;2022-07-15T20:36:38;32.30;51.30
40756;DHT22;26461;45.630;9.418;2022-07-15T20:39:51;32.20;51.40
40756;DHT22;26461;45.630;9.418;2022-07-15T20:43:07;32.10;51.40
40756;DHT22;26461;45.630;9.418;2022-07-15T20:46:21;31.90;51.40
40756;DHT22;26461;45.630;9.418;2022-07-15T20:49:42;31.80;51.80
40756;DHT22;26461;45.630;9.418;2022-07-15T20:52:58;31.70;52.10
40756;DHT22;26461;45.630;9.418;2022-07-15T20:56:16;31.60;52.50
40756;DHT22;26461;45.630;9.418;2022-07-15T20:59:32;31.60;52.80
40756;DHT22;26461;45.630;9.418;2022-07-15T21:02:46;31.50;53.10
40756;DHT22;26461;45.630;9.418;2022-07-15T21:06:04;31.40;53.40
40756;DHT22;26461;45.630;9.418;2022-07-15T21:09:23;31.30;53.60
40756;DHT22;26461;45.630;9.418;2022-07-15T21:12:44;31.20;53.90
40756;DHT22;26461;45.630;9.418;2022-07-15T21:16:00;31.20;54.00